sensor_id;sensor_type;location;lat;lon;timestamp;P1;durP1;ratioP1;P2;durP2;ratioP2
44116;SDS011;29781;49.480;8.512;2023-07-13T00:01:11;5.43;;;1.30;;
44116;SDS011;29781;49.480;8.512;2023-07-13T00:03:38;3.13;;;1.15;;
44116;SDS011;29781;49.480;8.512;2023-07-13T00:06:06;3.55;;;1.42;;
44116;SDS011;29781;49.480;8.512;2023-07-13T00:08:32;3.25;;;1.40;;
44116;SDS011;29781;49.480;8.512;2023-07-13T00:10:58;7.88;;;1.58;;
44116;SDS011;29781;49.480;8.512;2023-07-13T00:13:25;4.03;;;1.52;;
44116;SDS011;29781;49.480;8.512;2023-07-13T00:15:50;1.63;;;1.30;;
44116;SDS011;29781;49.480;8.512;2023-07-13T00:18:16;3.45;;;1.40;;
44116;SDS011;29781;49.480;8.512;2023-07-13T00:20:42;6.72;;;1.88;;
44116;SDS011;29781;49.480;8.512;2023-07-13T00:23:08;3.75;;;1.38;;
44116;SDS011;29781;49.480;8.512;2023-07-13T00:25:33;2.40;;;1.60;;
44116;SDS011;29781;49.480;8.512;2023-07-13T00:28:00;2.92;;;1.40;;
44116;SDS011;29781;49.480;8.512;2023-07-13T00:30:25;3.78;;;1.17;;
44116;SDS011;29781;49.480;8.512;2023-07-13T00:32:51;3.45;;;1.33;;
44116;SDS011;29781;49.480;8.512;2023-07-13T00:35:17;5.30;;;1.20;;
44116;SDS011;29781;49.480;8.512;2023-07-13T00:37:42;2.13;;;1.08;;
44116;SDS011;29781;49.480;8.512;2023-07-13T00:40:09;2.15;;;1.25;;
44116;SDS011;29781;49.480;8.512;2023-07-13T00:42:36;6.47;;;1.38;;
44116;SDS011;29781;49.480;8.512;2023-07-13T00:47:32;5.20;;;1.65;;
44116;SDS011;29781;49.480;8.512;2023-07-13T00:49:58;3.42;;;1.75;;
44116;SDS011;29781;49.480;8.512;2023-07-13T00:52:25;3.95;;;1.35;;
44116;SDS011;29781;49.480;8.512;2023-07-13T00:54:51;2.47;;;1.77;;
44116;SDS011;29781;49.480;8.512;2023-07-13T00:57:17;3.45;;;1.60;;
44116;SDS011;29781;49.480;8.512;2023-07-13T00:59:46;5.68;;;1.23;;
44116;SDS011;29781;49.480;8.512;2023-07-13T01:02:15;2.33;;;1.10;;
44116;SDS011;29781;49.480;8.512;2023-07-13T01:04:41;4.10;;;1.20;;
44116;SDS011;29781;49.480;8.512;2023-07-13T01:07:09;4.30;;;1.67;;
44116;SDS011;29781;49.480;8.512;2023-07-13T01:09:36;3.90;;;1.60;;
44116;SDS011;29781;49.480;8.512;2023-07-13T01:12:02;3.90;;;1.40;;
44116;SDS011;29781;49.480;8.512;2023-07-13T01:14:28;2.83;;;1.23;;
44116;SDS011;29781;49.480;8.512;2023-07-13T01:16:53;3.78;;;1.30;;
44116;SDS011;29781;49.480;8.512;2023-07-13T01:19:29;3.35;;;1.27;;
44116;SDS011;29781;49.480;8.512;2023-07-13T01:22:01;5.18;;;1.52;;
44116;SDS011;29781;49.480;8.512;2023-07-13T01:24:28;3.75;;;1.20;;
44116;SDS011;29781;49.480;8.512;2023-07-13T01:26:53;6.30;;;1.35;;
44116;SDS011;29781;49.480;8.512;2023-07-13T01:29:19;2.80;;;1.10;;
44116;SDS011;29781;49.480;8.512;2023-07-13T01:31:45;2.70;;;1.65;;
44116;SDS011;29781;49.480;8.512;2023-07-13T01:34:11;2.92;;;1.50;;
44116;SDS011;29781;49.480;8.512;2023-07-13T01:36:37;3.58;;;1.50;;
44116;SDS011;29781;49.480;8.512;2023-07-13T01:39:02;1.52;;;1.25;;
44116;SDS011;29781;49.480;8.512;2023-07-13T01:41:28;4.07;;;1.60;;
44116;SDS011;29781;49.480;8.512;2023-07-13T01:43:54;4.45;;;1.50;;
44116;SDS011;29781;49.480;8.512;2023-07-13T01:46:19;2.30;;;1.40;;
44116;SDS011;29781;49.480;8.512;2023-07-13T01:48:45;2.55;;;1.40;;
44116;SDS011;29781;49.480;8.512;2023-07-13T01:51:10;2.00;;;1.65;;
44116;SDS011;29781;49.480;8.512;2023-07-13T01:53:36;2.33;;;1.38;;
44116;SDS011;29781;49.480;8.512;2023-07-13T01:56:02;4.32;;;1.48;;
44116;SDS011;29781;49.480;8.512;2023-07-13T01:58:28;3.38;;;1.60;;
44116;SDS011;29781;49.480;8.512;2023-07-13T02:00:53;3.17;;;2.03;;
44116;SDS011;29781;49.480;8.512;2023-07-13T02:03:19;3.05;;;1.30;;
44116;SDS011;29781;49.480;8.512;2023-07-13T02:05:44;4.47;;;1.50;;
44116;SDS011;29781;49.480;8.512;2023-07-13T02:08:10;5.20;;;1.70;;
44116;SDS011;29781;49.480;8.512;2023-07-13T02:10:36;2.83;;;1.70;;
44116;SDS011;29781;49.480;8.512;2023-07-13T02:13:04;3.20;;;1.60;;
44116;SDS011;29781;49.480;8.512;2023-07-13T02:15:31;2.03;;;1.40;;
44116;SDS011;29781;49.480;8.512;2023-07-13T02:17:56;4.75;;;1.30;;
44116;SDS011;29781;49.480;8.512;2023-07-13T02:20:23;4.63;;;1.65;;
44116;SDS011;29781;49.480;8.512;2023-07-13T02:22:49;2.55;;;1.52;;
44116;SDS011;29781;49.480;8.512;2023-07-13T02:25:15;2.50;;;1.63;;
44116;SDS011;29781;49.480;8.512;2023-07-13T02:27:40;3.28;;;1.88;;
44116;SDS011;29781;49.480;8.512;2023-07-13T02:30:06;2.08;;;1.40;;
44116;SDS011;29781;49.480;8.512;2023-07-13T02:32:32;4.75;;;1.80;;
44116;SDS011;29781;49.480;8.512;2023-07-13T02:34:58;1.83;;;1.55;;
44116;SDS011;29781;49.480;8.512;2023-07-13T02:37:24;4.88;;;1.70;;
44116;SDS011;29781;49.480;8.512;2023-07-13T02:39:50;1.90;;;1.60;;
44116;SDS011;29781;49.480;8.512;2023-07-13T02:42:15;4.90;;;1.88;;
44116;SDS011;29781;49.480;8.512;2023-07-13T02:44:41;2.75;;;1.75;;
44116;SDS011;29781;49.480;8.512;2023-07-13T02:47:06;3.75;;;2.00;;
44116;SDS011;29781;49.480;8.512;2023-07-13T02:49:32;3.05;;;1.80;;
44116;SDS011;29781;49.480;8.512;2023-07-13T02:51:57;2.97;;;1.60;;
44116;SDS011;29781;49.480;8.512;2023-07-13T02:54:23;5.72;;;1.73;;
44116;SDS011;29781;49.480;8.512;2023-07-13T02:56:48;5.18;;;1.88;;
44116;SDS011;29781;49.480;8.512;2023-07-13T02:59:14;4.80;;;1.70;;
44116;SDS011;29781;49.480;8.512;2023-07-13T03:01:39;6.80;;;1.98;;
44116;SDS011;29781;49.480;8.512;2023-07-13T03:04:05;3.05;;;1.80;;
44116;SDS011;29781;49.480;8.512;2023-07-13T03:06:31;4.03;;;2.00;;
44116;SDS011;29781;49.480;8.512;2023-07-13T03:08:58;5.47;;;1.85;;
44116;SDS011;29781;49.480;8.512;2023-07-13T03:11:25;8.13;;;1.88;;
44116;SDS011;29781;49.480;8.512;2023-07-13T03:13:51;2.20;;;1.95;;
44116;SDS011;29781;49.480;8.512;2023-07-13T03:16:17;5.10;;;1.90;;
44116;SDS011;29781;49.480;8.512;2023-07-13T03:18:42;5.18;;;1.95;;
44116;SDS011;29781;49.480;8.512;2023-07-13T03:21:08;6.60;;;2.30;;
44116;SDS011;29781;49.480;8.512;2023-07-13T03:23:34;4.20;;;1.92;;
44116;SDS011;29781;49.480;8.512;2023-07-13T03:26:03;3.83;;;2.17;;
44116;SDS011;29781;49.480;8.512;2023-07-13T03:28:34;6.35;;;2.28;;
44116;SDS011;29781;49.480;8.512;2023-07-13T03:31:00;4.13;;;2.40;;
44116;SDS011;29781;49.480;8.512;2023-07-13T03:33:31;6.57;;;2.60;;
44116;SDS011;29781;49.480;8.512;2023-07-13T03:35:56;4.13;;;2.45;;
44116;SDS011;29781;49.480;8.512;2023-07-13T03:38:22;5.32;;;2.72;;
44116;SDS011;29781;49.480;8.512;2023-07-13T03:40:48;10.80;;;2.45;;
44116;SDS011;29781;49.480;8.512;2023-07-13T03:43:14;3.33;;;2.20;;
44116;SDS011;29781;49.480;8.512;2023-07-13T03:45:39;3.58;;;2.15;;
44116;SDS011;29781;49.480;8.512;2023-07-13T03:48:05;6.55;;;2.38;;
44116;SDS011;29781;49.480;8.512;2023-07-13T03:50:31;4.38;;;2.33;;
44116;SDS011;29781;49.480;8.512;2023-07-13T03:52:57;5.60;;;2.17;;
44116;SDS011;29781;49.480;8.512;2023-07-13T03:55:23;4.30;;;2.33;;
44116;SDS011;29781;49.480;8.512;2023-07-13T03:57:53;3.40;;;2.20;;
44116;SDS011;29781;49.480;8.512;2023-07-13T04:00:25;7.05;;;2.50;;
44116;SDS011;29781;49.480;8.512;2023-07-13T04:02:51;6.80;;;2.30;;
44116;SDS011;29781;49.480;8.512;2023-07-13T04:05:16;5.40;;;2.03;;
44116;SDS011;29781;49.480;8.512;2023-07-13T04:07:42;5.93;;;2.42;;
44116;SDS011;29781;49.480;8.512;2023-07-13T04:10:08;3.67;;;2.28;;
44116;SDS011;29781;49.480;8.512;2023-07-13T04:12:34;4.07;;;2.08;;
44116;SDS011;29781;49.480;8.512;2023-07-13T04:14:59;4.63;;;2.25;;
44116;SDS011;29781;49.480;8.512;2023-07-13T04:17:25;3.58;;;2.00;;
44116;SDS011;29781;49.480;8.512;2023-07-13T04:19:50;3.85;;;2.53;;
44116;SDS011;29781;49.480;8.512;2023-07-13T04:22:16;3.65;;;2.30;;
44116;SDS011;29781;49.480;8.512;2023-07-13T04:24:41;5.05;;;2.60;;
44116;SDS011;29781;49.480;8.512;2023-07-13T04:27:07;5.90;;;2.40;;
44116;SDS011;29781;49.480;8.512;2023-07-13T04:29:32;4.72;;;2.35;;
44116;SDS011;29781;49.480;8.512;2023-07-13T04:31:58;4.13;;;2.38;;
44116;SDS011;29781;49.480;8.512;2023-07-13T04:34:23;5.70;;;2.70;;
44116;SDS011;29781;49.480;8.512;2023-07-13T04:36:49;8.73;;;2.60;;
44116;SDS011;29781;49.480;8.512;2023-07-13T04:39:15;5.88;;;2.50;;
44116;SDS011;29781;49.480;8.512;2023-07-13T04:41:41;5.03;;;2.78;;
44116;SDS011;29781;49.480;8.512;2023-07-13T04:44:06;7.38;;;2.47;;
44116;SDS011;29781;49.480;8.512;2023-07-13T04:46:32;4.95;;;2.40;;
44116;SDS011;29781;49.480;8.512;2023-07-13T04:48:57;6.20;;;2.58;;
44116;SDS011;29781;49.480;8.512;2023-07-13T04:51:23;4.45;;;2.42;;
44116;SDS011;29781;49.480;8.512;2023-07-13T04:53:49;9.98;;;2.72;;
44116;SDS011;29781;49.480;8.512;2023-07-13T04:56:15;4.88;;;2.60;;
44116;SDS011;29781;49.480;8.512;2023-07-13T04:58:40;3.72;;;2.20;;
44116;SDS011;29781;49.480;8.512;2023-07-13T05:01:06;4.63;;;2.58;;
44116;SDS011;29781;49.480;8.512;2023-07-13T05:03:32;8.20;;;2.30;;
44116;SDS011;29781;49.480;8.512;2023-07-13T05:06:00;4.20;;;2.67;;
44116;SDS011;29781;49.480;8.512;2023-07-13T05:08:27;5.40;;;2.72;;
44116;SDS011;29781;49.480;8.512;2023-07-13T05:10:53;7.03;;;2.55;;
44116;SDS011;29781;49.480;8.512;2023-07-13T05:13:19;6.43;;;2.60;;
44116;SDS011;29781;49.480;8.512;2023-07-13T05:15:45;4.68;;;2.75;;
44116;SDS011;29781;49.480;8.512;2023-07-13T05:18:10;4.72;;;2.70;;
44116;SDS011;29781;49.480;8.512;2023-07-13T05:20:36;7.07;;;2.65;;
44116;SDS011;29781;49.480;8.512;2023-07-13T05:23:01;7.70;;;2.90;;
44116;SDS011;29781;49.480;8.512;2023-07-13T05:25:27;6.10;;;2.63;;
44116;SDS011;29781;49.480;8.512;2023-07-13T05:27:52;7.97;;;2.83;;
44116;SDS011;29781;49.480;8.512;2023-07-13T05:30:18;6.63;;;3.08;;
44116;SDS011;29781;49.480;8.512;2023-07-13T05:32:43;3.03;;;2.70;;
44116;SDS011;29781;49.480;8.512;2023-07-13T05:35:09;7.32;;;2.60;;
44116;SDS011;29781;49.480;8.512;2023-07-13T05:37:34;3.42;;;2.30;;
44116;SDS011;29781;49.480;8.512;2023-07-13T05:40:02;4.82;;;2.90;;
44116;SDS011;29781;49.480;8.512;2023-07-13T05:42:27;11.07;;;2.85;;
44116;SDS011;29781;49.480;8.512;2023-07-13T05:44:53;9.93;;;3.05;;
44116;SDS011;29781;49.480;8.512;2023-07-13T05:47:18;14.82;;;2.75;;
44116;SDS011;29781;49.480;8.512;2023-07-13T05:49:44;11.05;;;3.05;;
44116;SDS011;29781;49.480;8.512;2023-07-13T05:52:09;22.05;;;3.35;;
44116;SDS011;29781;49.480;8.512;2023-07-13T05:54:35;12.38;;;3.53;;
44116;SDS011;29781;49.480;8.512;2023-07-13T05:57:00;12.35;;;3.53;;
44116;SDS011;29781;49.480;8.512;2023-07-13T05:59:26;4.97;;;3.03;;
44116;SDS011;29781;49.480;8.512;2023-07-13T06:01:51;12.55;;;3.05;;
44116;SDS011;29781;49.480;8.512;2023-07-13T06:04:17;7.60;;;3.47;;
44116;SDS011;29781;49.480;8.512;2023-07-13T06:06:43;48.38;;;5.43;;
44116;SDS011;29781;49.480;8.512;2023-07-13T06:09:08;13.23;;;3.60;;
44116;SDS011;29781;49.480;8.512;2023-07-13T06:11:34;19.83;;;3.60;;
44116;SDS011;29781;49.480;8.512;2023-07-13T06:14:00;12.57;;;3.40;;
44116;SDS011;29781;49.480;8.512;2023-07-13T06:16:25;10.43;;;3.10;;
44116;SDS011;29781;49.480;8.512;2023-07-13T06:18:51;14.65;;;3.55;;
44116;SDS011;29781;49.480;8.512;2023-07-13T06:21:17;14.43;;;4.07;;
44116;SDS011;29781;49.480;8.512;2023-07-13T06:23:45;12.77;;;3.72;;
44116;SDS011;29781;49.480;8.512;2023-07-13T06:26:15;7.72;;;2.85;;
44116;SDS011;29781;49.480;8.512;2023-07-13T06:28:42;11.38;;;3.55;;
44116;SDS011;29781;49.480;8.512;2023-07-13T06:31:09;5.75;;;3.22;;
44116;SDS011;29781;49.480;8.512;2023-07-13T06:33:36;8.75;;;3.15;;
44116;SDS011;29781;49.480;8.512;2023-07-13T06:36:02;6.75;;;3.08;;
44116;SDS011;29781;49.480;8.512;2023-07-13T06:38:28;5.57;;;3.00;;
44116;SDS011;29781;49.480;8.512;2023-07-13T06:40:54;10.55;;;3.00;;
44116;SDS011;29781;49.480;8.512;2023-07-13T06:43:20;11.82;;;3.20;;
44116;SDS011;29781;49.480;8.512;2023-07-13T06:45:46;6.35;;;2.70;;
44116;SDS011;29781;49.480;8.512;2023-07-13T06:48:14;6.82;;;2.72;;
44116;SDS011;29781;49.480;8.512;2023-07-13T06:50:41;5.35;;;2.25;;
44116;SDS011;29781;49.480;8.512;2023-07-13T06:53:06;9.75;;;2.17;;
44116;SDS011;29781;49.480;8.512;2023-07-13T06:55:32;5.82;;;2.13;;
44116;SDS011;29781;49.480;8.512;2023-07-13T06:57:57;6.18;;;2.45;;
44116;SDS011;29781;49.480;8.512;2023-07-13T07:00:23;20.58;;;2.63;;
44116;SDS011;29781;49.480;8.512;2023-07-13T07:02:49;16.17;;;2.83;;
44116;SDS011;29781;49.480;8.512;2023-07-13T07:05:14;8.48;;;2.38;;
44116;SDS011;29781;49.480;8.512;2023-07-13T07:07:40;9.23;;;2.17;;
44116;SDS011;29781;49.480;8.512;2023-07-13T07:10:05;28.65;;;2.78;;
44116;SDS011;29781;49.480;8.512;2023-07-13T07:12:31;9.65;;;2.05;;
44116;SDS011;29781;49.480;8.512;2023-07-13T07:14:57;8.60;;;1.95;;
44116;SDS011;29781;49.480;8.512;2023-07-13T07:17:22;7.43;;;2.53;;
44116;SDS011;29781;49.480;8.512;2023-07-13T07:19:48;13.05;;;2.97;;
44116;SDS011;29781;49.480;8.512;2023-07-13T07:22:14;21.30;;;2.90;;
44116;SDS011;29781;49.480;8.512;2023-07-13T07:24:39;13.98;;;2.45;;
44116;SDS011;29781;49.480;8.512;2023-07-13T07:27:05;10.23;;;1.98;;
44116;SDS011;29781;49.480;8.512;2023-07-13T07:29:30;4.60;;;1.67;;
44116;SDS011;29781;49.480;8.512;2023-07-13T07:31:56;4.45;;;1.40;;
44116;SDS011;29781;49.480;8.512;2023-07-13T07:34:21;6.20;;;1.40;;
44116;SDS011;29781;49.480;8.512;2023-07-13T07:36:47;3.30;;;1.35;;
44116;SDS011;29781;49.480;8.512;2023-07-13T07:39:12;3.35;;;1.38;;
44116;SDS011;29781;49.480;8.512;2023-07-13T07:41:38;5.95;;;1.65;;
44116;SDS011;29781;49.480;8.512;2023-07-13T07:44:04;6.53;;;1.50;;
44116;SDS011;29781;49.480;8.512;2023-07-13T07:46:31;6.25;;;1.40;;
44116;SDS011;29781;49.480;8.512;2023-07-13T07:48:57;5.65;;;1.58;;
44116;SDS011;29781;49.480;8.512;2023-07-13T07:51:22;3.70;;;1.30;;
44116;SDS011;29781;49.480;8.512;2023-07-13T07:53:48;3.10;;;1.45;;
44116;SDS011;29781;49.480;8.512;2023-07-13T07:56:13;5.72;;;1.65;;
44116;SDS011;29781;49.480;8.512;2023-07-13T07:58:41;4.53;;;1.50;;
44116;SDS011;29781;49.480;8.512;2023-07-13T08:01:07;6.15;;;1.27;;
44116;SDS011;29781;49.480;8.512;2023-07-13T08:03:32;3.28;;;1.42;;
44116;SDS011;29781;49.480;8.512;2023-07-13T08:05:58;2.95;;;1.25;;
44116;SDS011;29781;49.480;8.512;2023-07-13T08:08:24;4.35;;;1.08;;
44116;SDS011;29781;49.480;8.512;2023-07-13T08:10:50;3.92;;;1.35;;
44116;SDS011;29781;49.480;8.512;2023-07-13T08:13:15;5.53;;;1.10;;
44116;SDS011;29781;49.480;8.512;2023-07-13T08:15:41;3.80;;;1.55;;
44116;SDS011;29781;49.480;8.512;2023-07-13T08:18:07;6.03;;;1.17;;
44116;SDS011;29781;49.480;8.512;2023-07-13T08:20:36;4.57;;;1.20;;
44116;SDS011;29781;49.480;8.512;2023-07-13T08:23:03;5.47;;;1.33;;
44116;SDS011;29781;49.480;8.512;2023-07-13T08:25:28;3.00;;;1.60;;
44116;SDS011;29781;49.480;8.512;2023-07-13T08:27:54;5.32;;;1.77;;
44116;SDS011;29781;49.480;8.512;2023-07-13T08:30:20;3.85;;;1.30;;
44116;SDS011;29781;49.480;8.512;2023-07-13T08:32:45;6.78;;;1.45;;
44116;SDS011;29781;49.480;8.512;2023-07-13T08:35:11;2.55;;;1.33;;
44116;SDS011;29781;49.480;8.512;2023-07-13T08:37:36;2.35;;;1.08;;
44116;SDS011;29781;49.480;8.512;2023-07-13T08:40:02;4.03;;;1.08;;
44116;SDS011;29781;49.480;8.512;2023-07-13T08:45:14;2.13;;;1.00;;
44116;SDS011;29781;49.480;8.512;2023-07-13T08:48:00;3.80;;;1.17;;
44116;SDS011;29781;49.480;8.512;2023-07-13T08:50:45;3.38;;;1.35;;
44116;SDS011;29781;49.480;8.512;2023-07-13T08:53:39;4.63;;;1.83;;
44116;SDS011;29781;49.480;8.512;2023-07-13T08:56:12;4.13;;;1.08;;
44116;SDS011;29781;49.480;8.512;2023-07-13T08:58:44;5.55;;;1.23;;
44116;SDS011;29781;49.480;8.512;2023-07-13T09:04:04;3.28;;;1.02;;
44116;SDS011;29781;49.480;8.512;2023-07-13T09:06:58;2.40;;;0.95;;
44116;SDS011;29781;49.480;8.512;2023-07-13T09:09:52;14.48;;;2.00;;
44116;SDS011;29781;49.480;8.512;2023-07-13T09:12:49;3.83;;;1.15;;
44116;SDS011;29781;49.480;8.512;2023-07-13T09:15:31;3.17;;;1.13;;
44116;SDS011;29781;49.480;8.512;2023-07-13T09:18:02;3.25;;;1.08;;
44116;SDS011;29781;49.480;8.512;2023-07-13T09:20:52;5.25;;;1.58;;
44116;SDS011;29781;49.480;8.512;2023-07-13T09:23:24;6.32;;;1.33;;
44116;SDS011;29781;49.480;8.512;2023-07-13T09:25:53;3.13;;;1.50;;
44116;SDS011;29781;49.480;8.512;2023-07-13T09:28:26;4.57;;;1.15;;
44116;SDS011;29781;49.480;8.512;2023-07-13T09:30:58;3.40;;;1.38;;
44116;SDS011;29781;49.480;8.512;2023-07-13T09:33:29;5.20;;;1.27;;
44116;SDS011;29781;49.480;8.512;2023-07-13T09:35:56;4.20;;;1.15;;
44116;SDS011;29781;49.480;8.512;2023-07-13T09:38:23;6.60;;;1.55;;
44116;SDS011;29781;49.480;8.512;2023-07-13T09:40:58;3.05;;;1.35;;
44116;SDS011;29781;49.480;8.512;2023-07-13T09:43:28;5.68;;;1.60;;
44116;SDS011;29781;49.480;8.512;2023-07-13T09:45:56;3.40;;;1.20;;
44116;SDS011;29781;49.480;8.512;2023-07-13T09:48:22;4.93;;;1.30;;
44116;SDS011;29781;49.480;8.512;2023-07-13T09:50:49;4.18;;;1.10;;
44116;SDS011;29781;49.480;8.512;2023-07-13T09:53:21;10.30;;;1.45;;
44116;SDS011;29781;49.480;8.512;2023-07-13T09:55:48;6.75;;;1.13;;
44116;SDS011;29781;49.480;8.512;2023-07-13T09:58:15;3.67;;;1.45;;
44116;SDS011;29781;49.480;8.512;2023-07-13T10:03:29;3.20;;;1.27;;
44116;SDS011;29781;49.480;8.512;2023-07-13T10:06:06;2.23;;;1.10;;
44116;SDS011;29781;49.480;8.512;2023-07-13T10:08:40;4.68;;;1.30;;
44116;SDS011;29781;49.480;8.512;2023-07-13T10:11:10;1.50;;;1.00;;
44116;SDS011;29781;49.480;8.512;2023-07-13T10:13:56;3.78;;;1.00;;
44116;SDS011;29781;49.480;8.512;2023-07-13T10:16:31;3.47;;;1.30;;
44116;SDS011;29781;49.480;8.512;2023-07-13T10:18:59;4.82;;;1.23;;
44116;SDS011;29781;49.480;8.512;2023-07-13T10:21:47;5.70;;;1.20;;
44116;SDS011;29781;49.480;8.512;2023-07-13T10:24:23;3.45;;;1.38;;
44116;SDS011;29781;49.480;8.512;2023-07-13T10:29:20;6.70;;;1.23;;
44116;SDS011;29781;49.480;8.512;2023-07-13T10:31:49;1.65;;;1.10;;
44116;SDS011;29781;49.480;8.512;2023-07-13T10:34:15;3.13;;;1.25;;
44116;SDS011;29781;49.480;8.512;2023-07-13T10:36:42;2.03;;;1.08;;
44116;SDS011;29781;49.480;8.512;2023-07-13T10:39:13;7.55;;;0.95;;
44116;SDS011;29781;49.480;8.512;2023-07-13T10:41:45;4.07;;;1.17;;
44116;SDS011;29781;49.480;8.512;2023-07-13T10:44:18;1.15;;;0.70;;
44116;SDS011;29781;49.480;8.512;2023-07-13T10:46:51;2.55;;;1.13;;
44116;SDS011;29781;49.480;8.512;2023-07-13T10:49:19;4.03;;;1.10;;
44116;SDS011;29781;49.480;8.512;2023-07-13T10:51:46;7.43;;;1.17;;
44116;SDS011;29781;49.480;8.512;2023-07-13T10:56:43;2.63;;;1.08;;
44116;SDS011;29781;49.480;8.512;2023-07-13T10:59:18;3.25;;;1.15;;
44116;SDS011;29781;49.480;8.512;2023-07-13T11:01:55;3.00;;;1.63;;
44116;SDS011;29781;49.480;8.512;2023-07-13T11:04:47;1.35;;;0.93;;
44116;SDS011;29781;49.480;8.512;2023-07-13T11:07:19;3.58;;;1.30;;
44116;SDS011;29781;49.480;8.512;2023-07-13T11:09:51;1.50;;;1.00;;
44116;SDS011;29781;49.480;8.512;2023-07-13T11:19:53;1.75;;;0.80;;
44116;SDS011;29781;49.480;8.512;2023-07-13T11:22:41;1.88;;;0.90;;
44116;SDS011;29781;49.480;8.512;2023-07-13T11:25:21;3.65;;;1.20;;
44116;SDS011;29781;49.480;8.512;2023-07-13T11:27:52;4.13;;;1.20;;
44116;SDS011;29781;49.480;8.512;2023-07-13T11:36:03;1.92;;;1.00;;
44116;SDS011;29781;49.480;8.512;2023-07-13T11:38:38;2.38;;;1.30;;
44116;SDS011;29781;49.480;8.512;2023-07-13T11:41:15;9.07;;;1.20;;
44116;SDS011;29781;49.480;8.512;2023-07-13T11:43:49;4.43;;;1.38;;
44116;SDS011;29781;49.480;8.512;2023-07-13T11:46:18;4.55;;;1.10;;
44116;SDS011;29781;49.480;8.512;2023-07-13T11:48:47;3.75;;;1.30;;
44116;SDS011;29781;49.480;8.512;2023-07-13T11:51:24;2.92;;;1.08;;
44116;SDS011;29781;49.480;8.512;2023-07-13T11:53:53;3.33;;;1.00;;
44116;SDS011;29781;49.480;8.512;2023-07-13T11:56:21;5.68;;;1.17;;
44116;SDS011;29781;49.480;8.512;2023-07-13T11:58:48;3.00;;;1.13;;
44116;SDS011;29781;49.480;8.512;2023-07-13T12:01:20;4.03;;;1.02;;
44116;SDS011;29781;49.480;8.512;2023-07-13T12:03:48;3.28;;;1.10;;
44116;SDS011;29781;49.480;8.512;2023-07-13T12:06:30;3.88;;;1.10;;
44116;SDS011;29781;49.480;8.512;2023-07-13T12:09:01;2.13;;;0.80;;
44116;SDS011;29781;49.480;8.512;2023-07-13T12:11:37;2.47;;;1.00;;
44116;SDS011;29781;49.480;8.512;2023-07-13T12:14:04;3.85;;;1.20;;
44116;SDS011;29781;49.480;8.512;2023-07-13T12:16:31;2.95;;;1.10;;
44116;SDS011;29781;49.480;8.512;2023-07-13T12:18:58;3.10;;;1.27;;
44116;SDS011;29781;49.480;8.512;2023-07-13T12:21:32;6.63;;;1.20;;
44116;SDS011;29781;49.480;8.512;2023-07-13T12:23:59;3.25;;;1.10;;
44116;SDS011;29781;49.480;8.512;2023-07-13T12:26:27;1.70;;;1.00;;
44116;SDS011;29781;49.480;8.512;2023-07-13T12:28:55;2.53;;;1.08;;
44116;SDS011;29781;49.480;8.512;2023-07-13T12:31:41;1.83;;;1.02;;
44116;SDS011;29781;49.480;8.512;2023-07-13T12:34:12;2.78;;;1.02;;
44116;SDS011;29781;49.480;8.512;2023-07-13T12:36:39;2.92;;;1.42;;
44116;SDS011;29781;49.480;8.512;2023-07-13T12:39:12;5.38;;;1.30;;
44116;SDS011;29781;49.480;8.512;2023-07-13T12:41:44;3.72;;;1.48;;
44116;SDS011;29781;49.480;8.512;2023-07-13T12:44:14;3.22;;;1.13;;
44116;SDS011;29781;49.480;8.512;2023-07-13T12:46:52;3.22;;;1.00;;
44116;SDS011;29781;49.480;8.512;2023-07-13T12:49:30;1.92;;;1.13;;
44116;SDS011;29781;49.480;8.512;2023-07-13T12:52:00;5.68;;;1.10;;
44116;SDS011;29781;49.480;8.512;2023-07-13T12:54:28;2.20;;;1.23;;
44116;SDS011;29781;49.480;8.512;2023-07-13T12:56:55;4.18;;;1.15;;
44116;SDS011;29781;49.480;8.512;2023-07-13T12:59:23;4.07;;;1.00;;
44116;SDS011;29781;49.480;8.512;2023-07-13T13:01:51;2.25;;;1.25;;
44116;SDS011;29781;49.480;8.512;2023-07-13T13:04:18;2.45;;;1.10;;
44116;SDS011;29781;49.480;8.512;2023-07-13T13:06:46;3.70;;;1.10;;
44116;SDS011;29781;49.480;8.512;2023-07-13T13:09:14;1.60;;;1.00;;
44116;SDS011;29781;49.480;8.512;2023-07-13T13:11:41;3.30;;;1.27;;
44116;SDS011;29781;49.480;8.512;2023-07-13T13:14:07;2.10;;;1.20;;
44116;SDS011;29781;49.480;8.512;2023-07-13T13:16:52;3.47;;;1.48;;
44116;SDS011;29781;49.480;8.512;2023-07-13T13:19:19;5.53;;;1.10;;
44116;SDS011;29781;49.480;8.512;2023-07-13T13:21:50;5.00;;;1.52;;
44116;SDS011;29781;49.480;8.512;2023-07-13T13:24:18;2.67;;;1.20;;
44116;SDS011;29781;49.480;8.512;2023-07-13T13:26:45;3.33;;;1.20;;
44116;SDS011;29781;49.480;8.512;2023-07-13T13:29:12;3.45;;;1.38;;
44116;SDS011;29781;49.480;8.512;2023-07-13T13:31:39;1.83;;;1.10;;
44116;SDS011;29781;49.480;8.512;2023-07-13T13:34:07;3.88;;;1.38;;
44116;SDS011;29781;49.480;8.512;2023-07-13T13:36:36;1.60;;;0.82;;
44116;SDS011;29781;49.480;8.512;2023-07-13T13:39:05;3.78;;;1.40;;
44116;SDS011;29781;49.480;8.512;2023-07-13T13:41:41;2.92;;;1.00;;
44116;SDS011;29781;49.480;8.512;2023-07-13T13:44:08;2.33;;;1.05;;
44116;SDS011;29781;49.480;8.512;2023-07-13T13:46:35;1.95;;;0.90;;
44116;SDS011;29781;49.480;8.512;2023-07-13T13:49:01;2.42;;;1.17;;
44116;SDS011;29781;49.480;8.512;2023-07-13T13:51:27;3.90;;;1.02;;
44116;SDS011;29781;49.480;8.512;2023-07-13T13:53:54;6.55;;;1.10;;
44116;SDS011;29781;49.480;8.512;2023-07-13T13:56:19;3.58;;;1.30;;
44116;SDS011;29781;49.480;8.512;2023-07-13T13:58:45;7.43;;;1.83;;
44116;SDS011;29781;49.480;8.512;2023-07-13T14:01:18;3.22;;;1.08;;
44116;SDS011;29781;49.480;8.512;2023-07-13T14:03:45;6.57;;;1.27;;
44116;SDS011;29781;49.480;8.512;2023-07-13T14:06:13;2.50;;;1.30;;
44116;SDS011;29781;49.480;8.512;2023-07-13T14:08:40;3.00;;;1.30;;
44116;SDS011;29781;49.480;8.512;2023-07-13T14:11:07;1.98;;;1.20;;
44116;SDS011;29781;49.480;8.512;2023-07-13T14:13:40;3.75;;;1.30;;
44116;SDS011;29781;49.480;8.512;2023-07-13T14:16:11;3.67;;;1.10;;
44116;SDS011;29781;49.480;8.512;2023-07-13T14:18:38;7.10;;;1.50;;
44116;SDS011;29781;49.480;8.512;2023-07-13T14:21:08;3.88;;;1.08;;
44116;SDS011;29781;49.480;8.512;2023-07-13T14:23:43;4.20;;;1.23;;
44116;SDS011;29781;49.480;8.512;2023-07-13T14:26:14;1.27;;;0.98;;
44116;SDS011;29781;49.480;8.512;2023-07-13T14:28:42;2.80;;;1.13;;
44116;SDS011;29781;49.480;8.512;2023-07-13T14:31:11;2.17;;;1.30;;
44116;SDS011;29781;49.480;8.512;2023-07-13T14:33:38;2.83;;;1.08;;
44116;SDS011;29781;49.480;8.512;2023-07-13T14:36:20;8.02;;;1.60;;
44116;SDS011;29781;49.480;8.512;2023-07-13T14:39:05;2.67;;;1.10;;
44116;SDS011;29781;49.480;8.512;2023-07-13T14:41:40;8.00;;;1.92;;
44116;SDS011;29781;49.480;8.512;2023-07-13T14:44:11;19.77;;;2.03;;
44116;SDS011;29781;49.480;8.512;2023-07-13T14:46:40;2.95;;;1.27;;
44116;SDS011;29781;49.480;8.512;2023-07-13T14:49:15;4.50;;;1.33;;
44116;SDS011;29781;49.480;8.512;2023-07-13T14:51:44;3.60;;;1.30;;
44116;SDS011;29781;49.480;8.512;2023-07-13T14:54:10;3.35;;;1.25;;
44116;SDS011;29781;49.480;8.512;2023-07-13T14:56:36;9.63;;;1.25;;
44116;SDS011;29781;49.480;8.512;2023-07-13T14:59:02;4.88;;;1.13;;
44116;SDS011;29781;49.480;8.512;2023-07-13T15:01:27;1.55;;;1.17;;
44116;SDS011;29781;49.480;8.512;2023-07-13T15:03:53;2.03;;;1.10;;
44116;SDS011;29781;49.480;8.512;2023-07-13T15:06:19;3.95;;;1.10;;
44116;SDS011;29781;49.480;8.512;2023-07-13T15:08:45;2.97;;;1.33;;
44116;SDS011;29781;49.480;8.512;2023-07-13T15:11:11;3.70;;;1.15;;
44116;SDS011;29781;49.480;8.512;2023-07-13T15:13:38;2.95;;;1.20;;
44116;SDS011;29781;49.480;8.512;2023-07-13T15:16:05;4.75;;;1.30;;
44116;SDS011;29781;49.480;8.512;2023-07-13T15:18:39;4.13;;;1.30;;
44116;SDS011;29781;49.480;8.512;2023-07-13T15:21:08;10.55;;;1.42;;